Česky Dansk Deutsch English Español Suomi Français Magyar Italiano Nederlands norsk Polski Português svenska Türkçe

 

Het Weer

Luxor (Egypt)

13:00, 21 augustus 2016 (GMT)

NWNNE
WE
SWSSE
Home            
Luxor Asswan Hurguada Asyut El Tor Sharm El Sheikhintl Wejh Wadi Halfa Taba Eilat Tabuk Aqaba Airport Cairo Airport Ovda Yenbo Ma'An El Arish Port Said Beer-Sheva Alexandria / Nouzha Alexandria Borg El Arab Madinah Jerusalem Airport

Om een weerknop op uw website of weblog te plaatsen, copieer onderstaande code en plak die in uw pagina. In het eerste vakje staat HTML-code, in het tweede vakje UBB-code.


Add to Google

Details

Wind speed:1 bf, 3 kn, 1.5 m/s, 3.5 miles/h, 5.6 km/h
Wind direction:W, 270°
Visibility:Greater than 10000 m, 10 km, 32800 ft, 6.2 miles
Clouds:CAVOC
Temperature:40°C, 104°F
Gefühlte Temperatur:39°C, 103°F
Dew-point:13°C, 55°F
Atmospheric pressure:1007 hPa, 755.3 mmHg, 29.74 inHg, 0.994 atm
Relative humidity:20.3 %
METAR:HELX 211300Z 27003KT CAVOK 40/13 Q1007 NOSIG

Snelkoppelingen

Actuele weersinformatie van de hele wereld. Voeg locaties toe met het plus (+) symbool. Deze snelkoppelingen kunnen worden toegevoegd aan Google.

Lid van de Technetium groep

website free tracking
StatCounter NetStat W3C Validator

17-12-2017 04:46:14
astro.technetium.be money.technetium.be phote.technetium.be tafeltennistafel.technetium.be www.ligfiets.net